createdAt,value
2023-03-17T00:01:51.043Z,10.47
2023-03-17T00:04:53.514Z,10.34
2023-03-17T00:08:01.476Z,10.43
2023-03-17T00:11:03.938Z,10.37
2023-03-17T00:14:06.326Z,10.28
2023-03-17T00:17:09.954Z,10.30
2023-03-17T00:20:17.431Z,10.25
2023-03-17T00:23:22.290Z,10.25
2023-03-17T00:26:25.342Z,10.19
2023-03-17T00:29:27.980Z,10.15
2023-03-17T00:32:30.179Z,10.12
2023-03-17T00:35:33.374Z,10.07
2023-03-17T00:38:35.558Z,10.00
2023-03-17T00:41:38.459Z,9.99
2023-03-17T00:44:41.841Z,9.91
2023-03-17T00:47:45.389Z,9.89
2023-03-17T00:50:49.774Z,9.87
2023-03-17T00:53:52.732Z,9.94
2023-03-17T00:56:55.381Z,9.90
2023-03-17T00:59:57.559Z,9.90
2023-03-17T01:02:59.750Z,9.92
2023-03-17T01:06:04.675Z,9.83
2023-03-17T01:09:08.229Z,9.84
2023-03-17T01:12:12.856Z,9.74
2023-03-17T01:15:15.859Z,9.81
2023-03-17T01:18:21.287Z,9.72
2023-03-17T01:21:23.790Z,9.74
2023-03-17T01:24:28.511Z,9.78
2023-03-17T01:27:35.053Z,9.70
2023-03-17T01:30:39.318Z,9.72
2023-03-17T01:33:41.510Z,9.62
2023-03-17T01:36:43.763Z,9.67
2023-03-17T01:39:46.619Z,9.60
2023-03-17T01:43:09.164Z,9.59
2023-03-17T01:46:31.725Z,9.54
2023-03-17T01:49:37.527Z,9.55
2023-03-17T01:52:40.062Z,9.48
2023-03-17T01:55:44.828Z,9.46
2023-03-17T01:58:49.565Z,9.39
2023-03-17T02:01:54.992Z,9.52
2023-03-17T02:04:57.912Z,9.50
2023-03-17T02:08:00.264Z,9.52
2023-03-17T02:11:05.302Z,9.48
2023-03-17T02:14:08.877Z,9.35
2023-03-17T02:17:11.198Z,9.40
2023-03-17T02:20:16.324Z,9.37
2023-03-17T02:23:24.761Z,9.32
2023-03-17T02:26:29.114Z,9.32
2023-03-17T02:29:34.939Z,9.25
2023-03-17T02:32:38.110Z,9.23
2023-03-17T02:35:41.492Z,9.31
2023-03-17T02:38:43.886Z,9.24
2023-03-17T02:41:46.165Z,9.26
2023-03-17T02:44:49.501Z,9.20
2023-03-17T02:47:54.340Z,9.12
2023-03-17T02:50:56.540Z,9.10
2023-03-17T02:53:58.737Z,9.13
2023-03-17T02:57:01.137Z,9.20
2023-03-17T03:00:03.990Z,9.19
2023-03-17T03:03:06.326Z,9.16
2023-03-17T03:06:08.668Z,9.12
2023-03-17T03:09:11.906Z,9.10
2023-03-17T03:12:14.385Z,9.08
2023-03-17T03:15:16.705Z,9.05
2023-03-17T03:18:18.888Z,9.02
2023-03-17T03:21:22.107Z,8.99
2023-03-17T03:24:24.295Z,8.97
2023-03-17T03:27:26.641Z,8.94
2023-03-17T03:30:29.151Z,9.03
2023-03-17T03:33:31.847Z,8.97
2023-03-17T03:36:34.176Z,8.91
2023-03-17T03:39:37.544Z,8.92
2023-03-17T03:42:39.747Z,8.83
2023-03-17T03:45:42.094Z,8.76
2023-03-17T03:48:44.326Z,8.85
2023-03-17T03:51:46.496Z,8.81
2023-03-17T03:54:48.983Z,8.80
2023-03-17T03:57:51.360Z,8.79
2023-03-17T04:00:53.560Z,8.70
2023-03-17T04:03:55.802Z,8.76
2023-03-17T04:06:58.002Z,8.72
2023-03-17T04:10:00.196Z,8.74
2023-03-17T04:13:02.552Z,8.70
2023-03-17T04:16:05.108Z,8.70
2023-03-17T04:19:07.694Z,8.72
2023-03-17T04:22:11.958Z,8.64
2023-03-17T04:25:15.040Z,8.65
2023-03-17T04:28:17.714Z,8.64
2023-03-17T04:31:20.077Z,8.61
2023-03-17T04:34:23.116Z,8.69
2023-03-17T04:37:25.778Z,8.58
2023-03-17T04:40:29.388Z,8.63
2023-03-17T04:43:31.692Z,8.61
2023-03-17T04:46:34.021Z,8.62
2023-03-17T04:49:36.286Z,8.50
2023-03-17T04:52:38.957Z,8.55
2023-03-17T04:55:41.369Z,8.52
2023-03-17T04:58:43.630Z,8.50
2023-03-17T05:01:46.095Z,8.56
2023-03-17T05:04:48.660Z,8.66
2023-03-17T05:07:50.876Z,8.73
2023-03-17T05:10:53.093Z,8.71
2023-03-17T05:13:55.375Z,8.79
2023-03-17T05:16:57.687Z,8.80
2023-03-17T05:19:59.903Z,8.89
2023-03-17T05:23:02.134Z,8.89
2023-03-17T05:26:04.870Z,8.87
2023-03-17T05:29:07.327Z,8.82
2023-03-17T05:32:09.708Z,8.89
2023-03-17T05:35:11.820Z,9.01
2023-03-17T05:38:15.932Z,9.11
2023-03-17T05:41:18.090Z,9.05
2023-03-17T05:44:20.857Z,9.18
2023-03-17T05:47:23.163Z,9.17
2023-03-17T05:50:26.064Z,9.18
2023-03-17T05:53:28.591Z,9.33
2023-03-17T05:56:33.716Z,9.42
2023-03-17T05:59:36.225Z,9.43
2023-03-17T06:02:39.155Z,9.53
2023-03-17T06:05:41.926Z,9.54
2023-03-17T06:08:44.634Z,9.61
2023-03-17T06:11:46.808Z,9.70
2023-03-17T06:14:49.043Z,9.79
2023-03-17T06:17:51.810Z,9.77
2023-03-17T06:20:54.075Z,9.89
2023-03-17T06:23:56.233Z,10.01
2023-03-17T06:26:58.457Z,10.15
2023-03-17T06:30:00.693Z,10.22
2023-03-17T06:33:03.823Z,10.30
2023-03-17T06:36:06.485Z,10.44
2023-03-17T06:39:09.569Z,10.47
2023-03-17T06:42:12.019Z,10.59
2023-03-17T06:45:14.350Z,10.74
2023-03-17T06:48:16.821Z,10.67
2023-03-17T06:51:18.992Z,10.79
2023-03-17T06:54:23.916Z,10.86
2023-03-17T06:57:26.265Z,10.91
2023-03-17T07:00:30.400Z,10.91
2023-03-17T07:03:33.738Z,10.93
2023-03-17T07:06:36.086Z,10.97
2023-03-17T07:09:40.406Z,11.00
2023-03-17T07:12:47.274Z,11.19
2023-03-17T07:15:55.238Z,11.39
2023-03-17T07:18:58.195Z,11.42
2023-03-17T07:22:00.495Z,11.48
2023-03-17T07:25:02.686Z,11.56
2023-03-17T07:28:07.434Z,11.63
2023-03-17T07:31:11.563Z,11.80
2023-03-17T07:34:14.011Z,11.89
2023-03-17T07:37:16.198Z,11.95
2023-03-17T07:40:18.650Z,12.06
2023-03-17T07:43:21.046Z,12.15
2023-03-17T07:46:23.713Z,12.27
2023-03-17T07:49:40.360Z,12.35
2023-03-17T07:52:43.857Z,12.34
2023-03-17T07:55:46.442Z,12.54
2023-03-17T07:58:48.788Z,12.58
2023-03-17T08:01:52.214Z,12.67
2023-03-17T08:04:57.257Z,12.75
2023-03-17T08:07:59.613Z,12.84
2023-03-17T08:11:06.386Z,12.93
2023-03-17T08:14:16.782Z,13.02
2023-03-17T08:17:19.792Z,12.97
2023-03-17T08:20:22.613Z,13.00
2023-03-17T08:23:26.137Z,13.25
2023-03-17T08:26:29.742Z,13.35
2023-03-17T08:29:33.570Z,13.29
2023-03-17T08:32:36.941Z,13.39
2023-03-17T08:35:41.588Z,13.49
2023-03-17T08:38:45.000Z,13.47
2023-03-17T08:41:47.196Z,13.47
2023-03-17T08:44:49.900Z,13.60
2023-03-17T08:47:59.942Z,13.64
2023-03-17T08:51:02.435Z,13.63
2023-03-17T08:54:05.997Z,13.72
2023-03-17T08:57:08.352Z,13.79
2023-03-17T09:00:22.172Z,13.88
2023-03-17T09:03:24.581Z,14.03
2023-03-17T09:06:30.311Z,14.07
2023-03-17T09:09:34.869Z,14.01
2023-03-17T09:12:38.063Z,14.08
2023-03-17T09:15:40.566Z,14.13
2023-03-17T09:18:43.179Z,14.11
2023-03-17T09:21:45.433Z,14.16
2023-03-17T09:24:47.972Z,14.24
2023-03-17T09:27:50.402Z,14.23
2023-03-17T09:30:52.915Z,14.21
2023-03-17T09:33:55.206Z,14.21
2023-03-17T09:36:59.760Z,14.26
2023-03-17T09:40:05.129Z,14.30
2023-03-17T09:43:31.160Z,14.33
2023-03-17T09:47:02.441Z,14.47
2023-03-17T09:50:10.935Z,14.52
2023-03-17T09:53:18.895Z,14.49
2023-03-17T09:56:24.779Z,14.52
2023-03-17T09:59:40.442Z,14.57
2023-03-17T10:02:43.426Z,14.61
2023-03-17T10:05:46.901Z,14.62
2023-03-17T10:09:27.221Z,14.60
2023-03-17T10:12:51.366Z,14.56
2023-03-17T10:16:04.126Z,14.56
2023-03-17T10:19:18.596Z,14.69
2023-03-17T10:22:46.643Z,14.68
2023-03-17T10:25:51.248Z,14.66
2023-03-17T10:28:59.886Z,14.77
2023-03-17T10:32:02.206Z,14.84
2023-03-17T10:35:12.700Z,14.93
2023-03-17T10:38:19.302Z,14.97
2023-03-17T10:41:22.114Z,15.00
2023-03-17T10:44:43.207Z,15.06
2023-03-17T10:47:50.979Z,15.12
2023-03-17T10:50:56.883Z,15.23
2023-03-17T10:54:10.179Z,15.32
2023-03-17T10:57:15.898Z,15.37
2023-03-17T11:00:23.375Z,15.35
2023-03-17T11:03:31.284Z,15.35
2023-03-17T11:06:43.894Z,15.40
2023-03-17T11:09:50.694Z,15.55
2023-03-17T11:13:01.876Z,15.58
2023-03-17T11:16:11.047Z,15.66
2023-03-17T11:19:16.164Z,15.77
2023-03-17T11:22:30.490Z,15.89
2023-03-17T11:25:34.787Z,15.98
2023-03-17T11:28:41.146Z,16.08
2023-03-17T11:31:51.751Z,16.17
2023-03-17T11:35:03.574Z,16.28
2023-03-17T11:38:25.173Z,16.38
2023-03-17T11:41:36.352Z,16.43
2023-03-17T11:44:50.428Z,16.57
2023-03-17T11:48:02.676Z,16.66
2023-03-17T11:51:15.400Z,16.74
2023-03-17T11:54:46.132Z,16.85
2023-03-17T11:58:13.731Z,16.93
2023-03-17T12:01:30.668Z,17.04
2023-03-17T12:04:56.095Z,17.14
2023-03-17T12:08:19.357Z,17.24
2023-03-17T12:11:25.450Z,17.36
2023-03-17T12:14:35.073Z,17.47
2023-03-17T12:18:02.788Z,17.55
2023-03-17T12:21:14.688Z,17.66
2023-03-17T12:24:38.474Z,17.75
2023-03-17T12:28:10.975Z,17.84
2023-03-17T12:31:20.458Z,17.87
2023-03-17T12:34:27.179Z,17.93
2023-03-17T12:37:30.219Z,17.99
2023-03-17T12:40:46.834Z,18.02
2023-03-17T12:44:05.610Z,18.07
2023-03-17T12:47:41.984Z,18.13
2023-03-17T12:50:47.233Z,18.21
2023-03-17T12:53:51.528Z,18.21
2023-03-17T12:57:08.105Z,18.33
2023-03-17T13:00:29.739Z,18.39
2023-03-17T13:03:33.458Z,18.44
2023-03-17T13:06:48.098Z,18.46
2023-03-17T13:09:53.321Z,18.51
2023-03-17T13:13:05.656Z,18.56
2023-03-17T13:16:26.802Z,18.57
2023-03-17T13:19:33.585Z,18.63
2023-03-17T13:22:41.645Z,18.62
2023-03-17T13:25:55.373Z,18.64
2023-03-17T13:29:03.349Z,18.68
2023-03-17T13:32:24.793Z,18.70
2023-03-17T13:35:45.157Z,18.69
2023-03-17T13:39:18.717Z,18.69
2023-03-17T13:42:40.275Z,18.73
2023-03-17T13:45:47.577Z,18.77
2023-03-17T13:48:50.132Z,18.79
2023-03-17T13:52:04.617Z,18.85
2023-03-17T13:55:20.383Z,18.91
2023-03-17T13:58:24.885Z,18.91
2023-03-17T14:01:28.937Z,18.96
2023-03-17T14:04:42.355Z,18.99
2023-03-17T14:08:04.938Z,19.07
2023-03-17T14:11:15.573Z,19.13
2023-03-17T14:14:32.634Z,19.16
2023-03-17T14:17:41.773Z,19.21
2023-03-17T14:20:55.493Z,19.22
2023-03-17T14:24:00.281Z,19.24
2023-03-17T14:27:09.291Z,19.19
2023-03-17T14:30:38.387Z,19.22
2023-03-17T14:33:41.312Z,19.30
2023-03-17T14:36:43.669Z,19.32
2023-03-17T14:39:54.804Z,19.35
2023-03-17T14:42:57.417Z,19.37
2023-03-17T14:46:05.222Z,19.41
2023-03-17T14:49:18.414Z,19.42
2023-03-17T14:52:26.446Z,19.40
2023-03-17T14:55:39.675Z,19.42
2023-03-17T14:58:44.503Z,19.42
2023-03-17T15:01:48.584Z,19.40
2023-03-17T15:04:57.548Z,19.39
2023-03-17T15:07:59.892Z,19.36
2023-03-17T15:11:04.122Z,19.43
2023-03-17T15:14:16.502Z,19.50
2023-03-17T15:17:21.239Z,19.53
2023-03-17T15:20:23.785Z,19.58
2023-03-17T15:23:29.041Z,19.59
2023-03-17T15:26:31.573Z,19.62
2023-03-17T15:29:34.103Z,19.58
2023-03-17T15:32:36.596Z,19.57
2023-03-17T15:35:38.991Z,19.60
2023-03-17T15:38:41.378Z,19.59
2023-03-17T15:41:43.616Z,19.55
2023-03-17T15:44:46.038Z,19.48
2023-03-17T15:47:48.409Z,19.52
2023-03-17T15:50:51.422Z,19.42
2023-03-17T15:53:53.705Z,19.35
2023-03-17T15:56:57.059Z,19.30
2023-03-17T15:59:59.315Z,19.22
2023-03-17T16:03:26.986Z,19.09
2023-03-17T16:06:29.290Z,18.91
2023-03-17T16:09:31.970Z,18.87
2023-03-17T16:12:34.183Z,18.72
2023-03-17T16:15:38.833Z,18.57
2023-03-17T16:18:41.853Z,18.46
2023-03-17T16:21:44.328Z,18.25
2023-03-17T16:24:46.537Z,18.04
2023-03-17T16:27:51.396Z,17.90
2023-03-17T16:30:55.382Z,17.60
2023-03-17T16:33:57.995Z,17.43
2023-03-17T16:37:00.326Z,17.26
2023-03-17T16:40:02.809Z,17.13
2023-03-17T16:43:12.937Z,16.99
2023-03-17T16:46:20.005Z,16.85
2023-03-17T16:49:23.017Z,16.76
2023-03-17T16:52:25.690Z,16.61
2023-03-17T16:55:29.008Z,16.57
2023-03-17T16:58:33.745Z,16.47
2023-03-17T17:01:35.968Z,16.33
2023-03-17T17:04:39.730Z,16.27
2023-03-17T17:07:42.330Z,16.22
2023-03-17T17:10:44.490Z,16.06
2023-03-17T17:13:48.366Z,16.00
2023-03-17T17:16:50.611Z,15.95
2023-03-17T17:19:52.695Z,15.88
2023-03-17T17:22:55.550Z,15.76
2023-03-17T17:25:57.773Z,15.68
2023-03-17T17:29:00.041Z,15.61
2023-03-17T17:32:02.326Z,15.56
2023-03-17T17:35:04.828Z,15.48
2023-03-17T17:38:16.592Z,15.34
2023-03-17T17:41:21.584Z,15.23
2023-03-17T17:44:23.760Z,15.15
2023-03-17T17:47:26.166Z,15.05
2023-03-17T17:50:30.108Z,14.92
2023-03-17T17:53:32.557Z,14.94
2023-03-17T17:56:38.081Z,14.86
2023-03-17T17:59:40.371Z,14.81
2023-03-17T18:02:42.939Z,14.71
2023-03-17T18:05:45.109Z,14.62
2023-03-17T18:08:47.251Z,14.56
2023-03-17T18:11:49.468Z,14.53
2023-03-17T18:14:51.658Z,14.39
2023-03-17T18:17:54.192Z,14.46
2023-03-17T18:20:56.394Z,14.42
2023-03-17T18:23:59.526Z,14.44
2023-03-17T18:27:03.795Z,14.36
2023-03-17T18:30:08.609Z,14.34
2023-03-17T18:33:19.877Z,14.31
2023-03-17T18:36:22.400Z,14.22
2023-03-17T18:39:24.556Z,14.19
2023-03-17T18:42:27.283Z,14.08
2023-03-17T18:45:29.466Z,14.10
2023-03-17T18:48:31.758Z,14.04
2023-03-17T18:51:34.122Z,14.08
2023-03-17T18:54:37.600Z,14.00
2023-03-17T18:57:42.590Z,13.84
2023-03-17T19:00:46.951Z,13.86
2023-03-17T19:03:49.382Z,13.79
2023-03-17T19:06:51.576Z,13.74
2023-03-17T19:09:53.859Z,13.68
2023-03-17T19:12:56.158Z,13.53
2023-03-17T19:15:58.324Z,13.75
2023-03-17T19:19:00.850Z,13.87
2023-03-17T19:22:03.929Z,13.64
2023-03-17T19:25:06.729Z,13.62
2023-03-17T19:28:08.936Z,13.47
2023-03-17T19:31:11.427Z,13.37
2023-03-17T19:34:15.300Z,13.37
2023-03-17T19:37:17.511Z,13.40
2023-03-17T19:40:19.824Z,13.29
2023-03-17T19:43:39.103Z,13.33
2023-03-17T19:46:41.951Z,13.28
2023-03-17T19:49:44.139Z,13.24
2023-03-17T19:52:46.596Z,13.14
2023-03-17T19:55:49.157Z,13.11
2023-03-17T19:58:51.519Z,13.00
2023-03-17T20:01:53.755Z,13.06
2023-03-17T20:04:56.069Z,12.93
2023-03-17T20:07:58.353Z,12.94
2023-03-17T20:11:00.748Z,12.87
2023-03-17T20:14:03.746Z,12.83
2023-03-17T20:17:05.955Z,12.85
2023-03-17T20:20:10.595Z,12.79
2023-03-17T20:23:13.886Z,12.76
2023-03-17T20:26:16.109Z,12.66
2023-03-17T20:29:18.329Z,12.67
2023-03-17T20:32:20.976Z,12.57
2023-03-17T20:35:24.865Z,12.62
2023-03-17T20:38:27.957Z,12.50
2023-03-17T20:41:30.746Z,12.54
2023-03-17T20:44:32.936Z,12.51
2023-03-17T20:47:35.206Z,12.45
2023-03-17T20:50:38.817Z,12.39
2023-03-17T20:53:40.977Z,12.41
2023-03-17T20:56:44.152Z,12.39
2023-03-17T20:59:46.356Z,12.33
2023-03-17T21:02:50.343Z,12.38
2023-03-17T21:05:53.423Z,12.41
2023-03-17T21:08:55.814Z,12.33
2023-03-17T21:11:58.093Z,12.42
2023-03-17T21:15:00.721Z,12.32
2023-03-17T21:18:03.135Z,12.35
2023-03-17T21:21:05.723Z,12.32
2023-03-17T21:24:09.560Z,12.32
2023-03-17T21:27:12.632Z,12.25
2023-03-17T21:30:15.801Z,12.25
2023-03-17T21:33:18.329Z,12.25
2023-03-17T21:36:21.291Z,12.18
2023-03-17T21:39:24.068Z,12.17
2023-03-17T21:42:29.405Z,12.07
2023-03-17T21:45:31.944Z,12.05
2023-03-17T21:48:34.197Z,12.05
2023-03-17T21:51:36.441Z,12.04
2023-03-17T21:54:38.725Z,12.02
2023-03-17T21:57:41.036Z,11.99
2023-03-17T22:00:45.957Z,11.92
2023-03-17T22:03:49.615Z,11.97
2023-03-17T22:06:52.145Z,11.90
2023-03-17T22:09:56.974Z,11.85
2023-03-17T22:12:59.213Z,11.77
2023-03-17T22:16:02.248Z,11.85
2023-03-17T22:19:04.480Z,11.78
2023-03-17T22:22:06.729Z,11.78
2023-03-17T22:25:09.092Z,11.78
2023-03-17T22:28:11.312Z,11.73
2023-03-17T22:31:20.581Z,11.75
2023-03-17T22:34:23.315Z,11.67
2023-03-17T22:37:25.760Z,11.66
2023-03-17T22:40:28.003Z,11.71
2023-03-17T22:43:30.402Z,11.63
2023-03-17T22:46:32.734Z,11.69
2023-03-17T22:49:34.959Z,11.69
2023-03-17T22:52:37.874Z,11.67
2023-03-17T22:55:40.097Z,11.70
2023-03-17T22:58:42.707Z,11.73
2023-03-17T23:01:46.155Z,11.72
2023-03-17T23:04:49.123Z,11.68
2023-03-17T23:07:51.854Z,11.70
2023-03-17T23:10:54.826Z,11.67
2023-03-17T23:13:57.468Z,11.69
2023-03-17T23:17:00.181Z,11.69
2023-03-17T23:20:05.445Z,11.60
2023-03-17T23:23:08.419Z,11.64
2023-03-17T23:26:11.089Z,11.62
2023-03-17T23:29:13.312Z,11.54
2023-03-17T23:32:15.611Z,11.51
2023-03-17T23:35:19.506Z,11.57
2023-03-17T23:38:21.970Z,11.52
2023-03-17T23:41:24.200Z,11.46
2023-03-17T23:44:27.109Z,11.46
2023-03-17T23:47:29.524Z,11.45
2023-03-17T23:50:32.034Z,11.46
2023-03-17T23:53:36.209Z,11.50
2023-03-17T23:56:38.387Z,11.41
2023-03-17T23:59:40.544Z,11.37
